Time;durP1;ratioP1;P1;durP2;ratioP2;P2;SDS_P1;SDS_P2;PMS_P1;PMS_P2;Temp;Humidity;BMP_temperature;BMP_pressure;BME280_temperature;BME280_humidity;BME280_pressure;Samples;Min_cycle;Max_cycle;Signal;HPM_P1;HPM_P2
2023/03/31 00:01:51;;;;;;;2.67;1.23;;;;;;;;;;5015005;28;20026;-67
2023/03/31 00:04:22;;;;;;;2.22;1.50;;;;;;;;;;5013940;28;20041;-68
2023/03/31 00:06:52;;;;;;;3.33;1.23;;;;;;;;;;5008234;28;20033;-67
2023/03/31 00:09:20;;;;;;;15.68;1.65;;;;;;;;;;5008537;28;20048;-67
2023/03/31 00:11:50;;;;;;;1.35;1.00;;;;;;;;;;5009229;28;20033;-67
2023/03/31 00:14:17;;;;;;;2.78;1.77;;;;;;;;;;5030388;28;20097;-68
2023/03/31 00:16:48;;;;;;;2.75;1.67;;;;;;;;;;5033384;28;20372;-67
2023/03/31 00:19:18;;;;;;;4.03;1.83;;;;;;;;;;5032983;28;20030;-67
2023/03/31 00:21:46;;;;;;;2.90;1.40;;;;;;;;;;5032901;28;20075;-67
2023/03/31 00:24:13;;;;;;;4.43;2.13;;;;;;;;;;5028801;28;20108;-67
2023/03/31 00:26:40;;;;;;;3.10;1.63;;;;;;;;;;5007999;28;20022;-67
2023/03/31 00:29:08;;;;;;;12.90;1.75;;;;;;;;;;5018059;28;20113;-67
2023/03/31 00:31:35;;;;;;;2.38;1.27;;;;;;;;;;5026963;28;20033;-67
2023/03/31 00:34:02;;;;;;;3.53;1.90;;;;;;;;;;5027540;28;20443;-67
2023/03/31 00:36:28;;;;;;;5.80;1.85;;;;;;;;;;5031368;28;20044;-67
2023/03/31 00:39:01;;;;;;;2.80;1.65;;;;;;;;;;5032609;28;20096;-67
2023/03/31 00:41:30;;;;;;;3.53;1.92;;;;;;;;;;5031849;28;20072;-67
2023/03/31 00:44:21;;;;;;;1.60;1.23;;;;;;;;;;5022095;28;20060;-66
2023/03/31 00:47:06;;;;;;;2.05;1.48;;;;;;;;;;5012557;28;20021;-66
2023/03/31 00:49:41;;;;;;;3.70;1.50;;;;;;;;;;5007524;28;20033;-66
2023/03/31 00:52:12;;;;;;;3.50;1.70;;;;;;;;;;5007373;28;20034;-66
2023/03/31 00:54:40;;;;;;;4.33;2.00;;;;;;;;;;5007145;28;20022;-66
2023/03/31 00:57:10;;;;;;;2.20;1.37;;;;;;;;;;5007738;28;20040;-66
2023/03/31 00:59:42;;;;;;;3.77;1.77;;;;;;;;;;5012256;28;20057;-67
2023/03/31 01:02:10;;;;;;;3.97;2.10;;;;;;;;;;5012600;28;20084;-68
2023/03/31 01:04:41;;;;;;;3.50;2.00;;;;;;;;;;5012589;28;20068;-67
2023/03/31 01:07:16;;;;;;;4.27;1.83;;;;;;;;;;5012591;28;20100;-67
2023/03/31 01:09:46;;;;;;;5.77;2.00;;;;;;;;;;5011248;28;20506;-67
2023/03/31 01:12:13;;;;;;;3.50;2.03;;;;;;;;;;5007450;28;20029;-67
2023/03/31 01:14:40;;;;;;;3.30;2.03;;;;;;;;;;5016156;28;20037;-68
2023/03/31 01:17:09;;;;;;;3.13;2.00;;;;;;;;;;5023830;28;20045;-67
2023/03/31 01:19:48;;;;;;;3.40;1.77;;;;;;;;;;5023078;28;20029;-68
2023/03/31 01:22:22;;;;;;;3.20;1.77;;;;;;;;;;5032099;28;20029;-67
2023/03/31 01:25:07;;;;;;;2.90;1.93;;;;;;;;;;5026511;28;20037;-66
2023/03/31 01:27:49;;;;;;;2.37;1.47;;;;;;;;;;5012343;28;20026;-67
2023/03/31 01:30:35;;;;;;;3.30;1.87;;;;;;;;;;5012425;28;20032;-66
2023/03/31 01:33:20;;;;;;;3.60;2.10;;;;;;;;;;5011338;28;20456;-66
2023/03/31 01:35:58;;;;;;;2.70;2.00;;;;;;;;;;5009471;28;20252;-66
2023/03/31 01:38:31;;;;;;;3.20;2.10;;;;;;;;;;5007183;28;20030;-66
2023/03/31 01:41:00;;;;;;;2.40;1.53;;;;;;;;;;5006763;28;20034;-68
2023/03/31 01:43:36;;;;;;;3.30;2.13;;;;;;;;;;5010516;28;20038;-67
2023/03/31 01:46:09;;;;;;;4.80;2.43;;;;;;;;;;5012536;28;20046;-67
2023/03/31 01:48:54;;;;;;;3.00;2.03;;;;;;;;;;5019649;28;20075;-67
2023/03/31 01:51:35;;;;;;;3.33;2.15;;;;;;;;;;5021645;28;20021;-68
2023/03/31 01:54:38;;;;;;;3.73;1.77;;;;;;;;;;5012204;28;20022;-67
2023/03/31 01:57:07;;;;;;;3.00;1.80;;;;;;;;;;4965330;28;20159;-67
2023/03/31 01:59:37;;;;;;;7.43;3.00;;;;;;;;;;5000124;28;20068;-68
2023/03/31 02:02:16;;;;;;;3.03;2.13;;;;;;;;;;5007142;28;20465;-68
2023/03/31 02:04:48;;;;;;;8.63;2.40;;;;;;;;;;5024741;28;20030;-67
2023/03/31 02:07:17;;;;;;;5.83;2.30;;;;;;;;;;5035080;28;20104;-68
2023/03/31 02:09:47;;;;;;;15.17;2.57;;;;;;;;;;5035131;28;20025;-67
2023/03/31 02:12:15;;;;;;;8.80;2.70;;;;;;;;;;5035668;28;20472;-66
2023/03/31 02:14:45;;;;;;;4.13;2.13;;;;;;;;;;5028943;28;20080;-67
2023/03/31 02:17:18;;;;;;;2.80;1.77;;;;;;;;;;5032149;28;20476;-67
2023/03/31 02:19:47;;;;;;;7.10;2.70;;;;;;;;;;5012956;28;20030;-67
2023/03/31 02:22:14;;;;;;;2.50;2.00;;;;;;;;;;5011500;28;20084;-66
2023/03/31 02:24:42;;;;;;;9.50;2.37;;;;;;;;;;5028484;28;20022;-66
2023/03/31 02:27:14;;;;;;;3.10;2.07;;;;;;;;;;5027234;28;20025;-65
2023/03/31 02:29:41;;;;;;;4.13;2.60;;;;;;;;;;5020227;28;20467;-65
2023/03/31 02:32:14;;;;;;;12.90;2.40;;;;;;;;;;5024832;28;20141;-66
2023/03/31 02:34:41;;;;;;;2.50;1.73;;;;;;;;;;5031070;28;20033;-66
2023/03/31 02:37:07;;;;;;;2.60;2.00;;;;;;;;;;5035154;28;20487;-66
2023/03/31 02:39:35;;;;;;;9.83;2.83;;;;;;;;;;5031353;28;20036;-65
2023/03/31 02:42:08;;;;;;;26.17;3.00;;;;;;;;;;5010177;28;20041;-65
2023/03/31 02:44:35;;;;;;;16.13;2.73;;;;;;;;;;5010223;28;20113;-66
2023/03/31 02:47:07;;;;;;;3.57;2.07;;;;;;;;;;5010106;28;20535;-65
2023/03/31 02:49:34;;;;;;;3.83;2.50;;;;;;;;;;5019187;28;20025;-66
2023/03/31 02:52:13;;;;;;;4.30;2.80;;;;;;;;;;5014771;28;20018;-65
2023/03/31 02:54:58;;;;;;;4.77;2.67;;;;;;;;;;5014954;28;20026;-67
2023/03/31 02:57:34;;;;;;;5.78;2.90;;;;;;;;;;5014920;28;20358;-67
2023/03/31 03:00:09;;;;;;;2.77;2.17;;;;;;;;;;5030147;28;20029;-68
2023/03/31 03:02:42;;;;;;;7.43;2.57;;;;;;;;;;5028172;28;20065;-68
2023/03/31 03:05:19;;;;;;;3.27;1.87;;;;;;;;;;5009794;28;20034;-65
2023/03/31 03:08:08;;;;;;;3.80;2.40;;;;;;;;;;5010661;28;20492;-65
2023/03/31 03:10:54;;;;;;;8.67;2.57;;;;;;;;;;5018994;28;20055;-65
2023/03/31 03:13:30;;;;;;;5.07;2.67;;;;;;;;;;5026004;28;20029;-67
2023/03/31 03:16:05;;;;;;;10.87;2.43;;;;;;;;;;5014340;28;20037;-67
2023/03/31 03:18:32;;;;;;;3.43;2.33;;;;;;;;;;5014282;28;20018;-67
2023/03/31 03:20:59;;;;;;;4.70;2.20;;;;;;;;;;5020581;28;20052;-67
2023/03/31 03:23:25;;;;;;;4.53;2.40;;;;;;;;;;5021917;28;20041;-67
2023/03/31 03:25:56;;;;;;;3.33;2.20;;;;;;;;;;5009450;28;20049;-68
2023/03/31 03:28:23;;;;;;;4.97;2.60;;;;;;;;;;5009237;28;20022;-67
2023/03/31 03:30:50;;;;;;;3.73;2.37;;;;;;;;;;5009313;28;20064;-67
2023/03/31 03:33:16;;;;;;;3.70;2.20;;;;;;;;;;5009672;28;20026;-67
2023/03/31 03:35:43;;;;;;;21.20;1.93;;;;;;;;;;5024086;28;20025;-67
2023/03/31 03:38:10;;;;;;;11.67;2.37;;;;;;;;;;5017389;28;20030;-67
2023/03/31 03:40:37;;;;;;;2.03;1.53;;;;;;;;;;5014979;28;20531;-68
2023/03/31 03:43:04;;;;;;;11.70;2.30;;;;;;;;;;5024388;28;20033;-67
2023/03/31 03:45:30;;;;;;;22.10;2.63;;;;;;;;;;5015027;28;20053;-67
2023/03/31 03:47:57;;;;;;;6.97;2.60;;;;;;;;;;5025610;28;20041;-67
2023/03/31 03:50:24;;;;;;;8.57;2.37;;;;;;;;;;5009152;28;20038;-67
2023/03/31 03:52:50;;;;;;;3.17;1.93;;;;;;;;;;5008877;28;20041;-67
2023/03/31 03:55:17;;;;;;;3.20;2.13;;;;;;;;;;5008504;28;20091;-67
2023/03/31 03:57:44;;;;;;;3.00;1.80;;;;;;;;;;5018964;28;20053;-67
2023/03/31 04:00:11;;;;;;;3.30;2.13;;;;;;;;;;5013693;28;20026;-67
2023/03/31 04:02:38;;;;;;;5.13;2.37;;;;;;;;;;5013783;28;20034;-66
2023/03/31 04:05:05;;;;;;;3.20;2.33;;;;;;;;;;5013625;28;20030;-67
2023/03/31 04:07:32;;;;;;;2.00;1.60;;;;;;;;;;5019867;28;20034;-68
2023/03/31 04:09:59;;;;;;;3.83;2.43;;;;;;;;;;5010124;28;20037;-67
2023/03/31 04:12:25;;;;;;;14.90;3.07;;;;;;;;;;5008140;28;20022;-67
2023/03/31 04:14:52;;;;;;;2.40;1.60;;;;;;;;;;5019288;28;20029;-67
2023/03/31 04:17:31;;;;;;;6.60;2.93;;;;;;;;;;5021347;28;20034;-67
2023/03/31 04:20:04;;;;;;;3.90;2.30;;;;;;;;;;5011493;28;20033;-67
2023/03/31 04:22:39;;;;;;;12.80;2.67;;;;;;;;;;5013335;28;20102;-66
2023/03/31 04:25:13;;;;;;;;;;;;;;;;;;5018943;28;20028;-67
2023/03/31 04:27:49;;;;;;;6.23;2.47;;;;;;;;;;5032925;28;19905;-66
2023/03/31 04:30:21;;;;;;;5.53;2.50;;;;;;;;;;5029216;28;20101;-66
2023/03/31 04:32:52;;;;;;;5.53;2.53;;;;;;;;;;5028201;28;20029;-66
2023/03/31 04:35:22;;;;;;;2.40;1.83;;;;;;;;;;5027477;28;20033;-67
2023/03/31 04:37:49;;;;;;;3.03;1.90;;;;;;;;;;5027933;28;20072;-67
2023/03/31 04:40:16;;;;;;;2.87;2.10;;;;;;;;;;5027530;28;20037;-66
2023/03/31 04:42:45;;;;;;;5.30;1.90;;;;;;;;;;5031586;28;20029;-66
2023/03/31 04:45:12;;;;;;;12.20;2.83;;;;;;;;;;5032700;28;20026;-67
2023/03/31 04:47:39;;;;;;;3.43;2.10;;;;;;;;;;5032783;28;20025;-66
2023/03/31 04:50:06;;;;;;;2.47;1.77;;;;;;;;;;5032103;28;20028;-66
2023/03/31 04:52:33;;;;;;;2.83;1.93;;;;;;;;;;5012667;28;20469;-67
2023/03/31 04:54:59;;;;;;;3.27;2.20;;;;;;;;;;5008608;28;20034;-66
2023/03/31 04:57:26;;;;;;;3.77;2.20;;;;;;;;;;5007807;28;20030;-67
2023/03/31 04:59:53;;;;;;;3.60;2.30;;;;;;;;;;5007518;28;20029;-68
2023/03/31 05:02:22;;;;;;;6.10;2.83;;;;;;;;;;5026854;28;20036;-67
2023/03/31 05:04:52;;;;;;;4.13;2.13;;;;;;;;;;5031000;28;20474;-66
2023/03/31 05:07:19;;;;;;;3.77;2.07;;;;;;;;;;5032254;28;20037;-66
2023/03/31 05:09:46;;;;;;;6.73;2.70;;;;;;;;;;5032174;28;20057;-66
2023/03/31 05:12:12;;;;;;;4.17;1.83;;;;;;;;;;5031971;28;20473;-66
2023/03/31 05:14:39;;;;;;;2.87;2.07;;;;;;;;;;5032016;28;20017;-67
2023/03/31 05:17:06;;;;;;;3.67;2.67;;;;;;;;;;5028596;28;20032;-66
2023/03/31 05:19:32;;;;;;;5.70;2.30;;;;;;;;;;5027436;28;20421;-67
2023/03/31 05:21:59;;;;;;;2.63;1.90;;;;;;;;;;5010811;28;20028;-66
2023/03/31 05:24:28;;;;;;;4.77;1.83;;;;;;;;;;5007656;28;20030;-66
2023/03/31 05:26:56;;;;;;;3.70;2.83;;;;;;;;;;5010283;28;20130;-66
2023/03/31 05:29:23;;;;;;;4.77;2.70;;;;;;;;;;5012596;28;20053;-66
2023/03/31 05:31:52;;;;;;;2.83;1.93;;;;;;;;;;5012364;28;20037;-66
2023/03/31 05:34:19;;;;;;;5.20;2.57;;;;;;;;;;5012238;28;20081;-67
2023/03/31 05:36:52;;;;;;;5.30;1.90;;;;;;;;;;5012248;28;20041;-66
2023/03/31 05:39:19;;;;;;;4.67;2.83;;;;;;;;;;5009321;28;20030;-67
2023/03/31 05:41:45;;;;;;;6.07;1.93;;;;;;;;;;5011026;28;20034;-67
2023/03/31 05:44:12;;;;;;;4.77;1.50;;;;;;;;;;5011188;28;20041;-67
2023/03/31 05:46:40;;;;;;;5.63;3.10;;;;;;;;;;5011383;28;20380;-67
2023/03/31 05:49:07;;;;;;;3.13;2.03;;;;;;;;;;5014434;28;20464;-67
2023/03/31 05:51:33;;;;;;;2.57;2.00;;;;;;;;;;5022542;28;20346;-66
2023/03/31 05:54:00;;;;;;;4.57;2.40;;;;;;;;;;5020730;28;20148;-68
2023/03/31 05:56:27;;;;;;;4.13;2.97;;;;;;;;;;5034528;28;20028;-69
2023/03/31 05:58:54;;;;;;;3.50;2.07;;;;;;;;;;5035322;28;20017;-64
2023/03/31 06:01:22;;;;;;;2.60;1.90;;;;;;;;;;5032567;28;20022;-66
2023/03/31 06:03:49;;;;;;;2.93;2.03;;;;;;;;;;5023929;28;20477;-68
2023/03/31 06:06:16;;;;;;;3.60;2.13;;;;;;;;;;5023973;28;20041;-68
2023/03/31 06:08:44;;;;;;;2.13;1.37;;;;;;;;;;5022233;28;20459;-68
2023/03/31 06:11:12;;;;;;;2.07;1.53;;;;;;;;;;5032459;28;20033;-68
2023/03/31 06:13:39;;;;;;;4.03;2.17;;;;;;;;;;5030615;28;20060;-68
2023/03/31 06:16:06;;;;;;;4.30;2.27;;;;;;;;;;5035191;28;20464;-68
2023/03/31 06:18:35;;;;;;;2.93;2.00;;;;;;;;;;5035158;28;20056;-68
2023/03/31 06:21:01;;;;;;;4.43;2.03;;;;;;;;;;5035278;28;20546;-68
2023/03/31 06:23:28;;;;;;;3.90;2.03;;;;;;;;;;5032495;28;20080;-67
2023/03/31 06:25:59;;;;;;;3.47;2.33;;;;;;;;;;5029824;28;20106;-68
2023/03/31 06:28:26;;;;;;;7.70;2.97;;;;;;;;;;5030009;28;20029;-68
2023/03/31 06:30:59;;;;;;;2.83;1.97;;;;;;;;;;5029788;28;20025;-68
2023/03/31 06:33:26;;;;;;;7.60;2.20;;;;;;;;;;5031869;28;20487;-67
2023/03/31 06:35:55;;;;;;;5.87;2.80;;;;;;;;;;5034968;28;20077;-67
2023/03/31 06:38:21;;;;;;;5.43;1.77;;;;;;;;;;5034821;28;20039;-68
2023/03/31 06:40:48;;;;;;;2.60;1.97;;;;;;;;;;5034986;28;20017;-67
2023/03/31 06:43:15;;;;;;;2.67;1.83;;;;;;;;;;5034611;28;20030;-68
2023/03/31 06:45:41;;;;;;;4.57;2.73;;;;;;;;;;5014845;28;20487;-67
2023/03/31 06:48:08;;;;;;;2.03;1.40;;;;;;;;;;5029695;28;20028;-68
2023/03/31 06:50:37;;;;;;;5.30;2.47;;;;;;;;;;5029390;28;20033;-67
2023/03/31 06:53:04;;;;;;;7.80;2.70;;;;;;;;;;5009491;28;20137;-68
2023/03/31 06:55:32;;;;;;;5.57;2.57;;;;;;;;;;5022957;28;20036;-68
2023/03/31 06:57:59;;;;;;;3.23;2.23;;;;;;;;;;5022868;28;20460;-67
2023/03/31 07:00:26;;;;;;;2.23;1.53;;;;;;;;;;5029327;28;20484;-68
2023/03/31 07:02:54;;;;;;;4.60;2.47;;;;;;;;;;5017388;28;20492;-67
2023/03/31 07:05:26;;;;;;;3.67;2.13;;;;;;;;;;5029243;28;20076;-68
2023/03/31 07:07:53;;;;;;;1.37;1.13;;;;;;;;;;5013577;28;20390;-68
2023/03/31 07:10:20;;;;;;;3.77;2.43;;;;;;;;;;5021775;28;20055;-68
2023/03/31 07:12:47;;;;;;;11.43;2.47;;;;;;;;;;5012140;28;20049;-68
2023/03/31 07:15:13;;;;;;;4.03;2.50;;;;;;;;;;5025244;28;20033;-68
2023/03/31 07:17:42;;;;;;;3.37;2.30;;;;;;;;;;5016832;28;20025;-67
2023/03/31 07:20:19;;;;;;;3.10;2.10;;;;;;;;;;5022863;28;20030;-68
2023/03/31 07:22:46;;;;;;;4.37;2.07;;;;;;;;;;5026251;28;20029;-67
2023/03/31 07:25:14;;;;;;;4.47;2.90;;;;;;;;;;5018113;28;20045;-68
2023/03/31 07:27:41;;;;;;;2.87;1.83;;;;;;;;;;5014264;28;20029;-68
2023/03/31 07:30:09;;;;;;;5.43;2.80;;;;;;;;;;5025203;28;20030;-67
2023/03/31 07:32:40;;;;;;;3.73;2.40;;;;;;;;;;5014074;28;20372;-68
2023/03/31 07:35:07;;;;;;;2.13;1.77;;;;;;;;;;5024202;28;20416;-68
2023/03/31 07:37:42;;;;;;;3.10;2.43;;;;;;;;;;5023162;28;20022;-67
2023/03/31 07:40:10;;;;;;;3.10;2.33;;;;;;;;;;5019485;28;20531;-67
2023/03/31 07:42:37;;;;;;;5.10;2.77;;;;;;;;;;5027936;28;20064;-68
2023/03/31 07:45:05;;;;;;;2.97;2.30;;;;;;;;;;5016741;28;20033;-67
2023/03/31 07:47:32;;;;;;;2.17;1.50;;;;;;;;;;5033732;28;20116;-67
2023/03/31 07:49:59;;;;;;;3.10;2.23;;;;;;;;;;5020989;28;20026;-68
2023/03/31 07:52:25;;;;;;;5.57;2.97;;;;;;;;;;5024249;28;20029;-68
2023/03/31 07:54:55;;;;;;;3.30;2.37;;;;;;;;;;5012246;28;20399;-68
2023/03/31 07:57:22;;;;;;;4.27;2.57;;;;;;;;;;5023297;28;20029;-68
2023/03/31 07:59:49;;;;;;;2.57;1.90;;;;;;;;;;5017650;28;20030;-67
2023/03/31 08:02:17;;;;;;;15.30;2.57;;;;;;;;;;5020067;28;20056;-67
2023/03/31 08:04:44;;;;;;;5.70;2.77;;;;;;;;;;5030751;28;20045;-67
2023/03/31 08:07:12;;;;;;;4.20;2.83;;;;;;;;;;5015058;28;20033;-68
2023/03/31 08:09:39;;;;;;;5.73;3.17;;;;;;;;;;5018670;28;20476;-67
2023/03/31 08:12:06;;;;;;;6.13;2.40;;;;;;;;;;5027339;28;20030;-67
2023/03/31 08:14:33;;;;;;;7.33;2.73;;;;;;;;;;5021572;28;20545;-68
2023/03/31 08:17:00;;;;;;;2.27;1.70;;;;;;;;;;5014234;28;20076;-67
2023/03/31 08:19:27;;;;;;;3.47;2.33;;;;;;;;;;5024066;28;20469;-67
2023/03/31 08:21:54;;;;;;;9.93;2.90;;;;;;;;;;5011803;28;20472;-67
2023/03/31 08:24:21;;;;;;;3.23;2.57;;;;;;;;;;5023192;28;20046;-68
2023/03/31 08:26:47;;;;;;;3.07;2.33;;;;;;;;;;5024713;28;20025;-67
2023/03/31 08:29:14;;;;;;;3.83;2.43;;;;;;;;;;5032221;28;20022;-68
2023/03/31 08:31:41;;;;;;;2.70;2.00;;;;;;;;;;5032835;28;20025;-67
2023/03/31 08:34:07;;;;;;;4.90;2.27;;;;;;;;;;5026383;28;20089;-67
2023/03/31 08:36:35;;;;;;;5.70;2.73;;;;;;;;;;5012554;28;20033;-67
2023/03/31 08:39:01;;;;;;;2.37;1.80;;;;;;;;;;5023576;28;20420;-67
2023/03/31 08:41:34;;;;;;;2.07;1.60;;;;;;;;;;5023433;28;20144;-67
2023/03/31 08:44:03;;;;;;;2.60;1.97;;;;;;;;;;5010564;28;20038;-67
2023/03/31 08:46:32;;;;;;;6.63;2.70;;;;;;;;;;5027400;28;20022;-67
2023/03/31 08:49:00;;;;;;;3.97;2.30;;;;;;;;;;5028551;28;20030;-67
2023/03/31 08:51:36;;;;;;;3.37;2.47;;;;;;;;;;5026639;28;20044;-67
2023/03/31 08:54:06;;;;;;;1.70;1.40;;;;;;;;;;5030176;28;20044;-68
2023/03/31 08:56:38;;;;;;;13.50;3.67;;;;;;;;;;5021261;28;20034;-68
2023/03/31 08:59:06;;;;;;;6.47;2.50;;;;;;;;;;5030500;28;20025;-67
2023/03/31 09:01:44;;;;;;;5.63;2.60;;;;;;;;;;5027149;28;20049;-67
2023/03/31 09:04:29;;;;;;;2.33;1.90;;;;;;;;;;5016978;28;20034;-67
2023/03/31 09:07:01;;;;;;;4.90;1.98;;;;;;;;;;5025563;28;20030;-67
2023/03/31 09:09:49;;;;;;;2.43;1.67;;;;;;;;;;5026663;28;20025;-67
2023/03/31 09:12:34;;;;;;;2.57;2.00;;;;;;;;;;5018121;28;20053;-68
2023/03/31 09:15:03;;;;;;;5.15;3.10;;;;;;;;;;5013408;28;20080;-67
2023/03/31 09:17:38;;;;;;;3.67;2.07;;;;;;;;;;5020215;28;20025;-67
2023/03/31 09:20:18;;;;;;;2.63;1.65;;;;;;;;;;5019014;28;20026;-67
2023/03/31 09:22:47;;;;;;;3.53;2.63;;;;;;;;;;5026639;28;20061;-67
2023/03/31 09:25:14;;;;;;;4.90;2.70;;;;;;;;;;5016699;28;20032;-67
2023/03/31 09:27:46;;;;;;;6.10;2.73;;;;;;;;;;5025852;28;20052;-67
2023/03/31 09:30:20;;;;;;;4.23;2.47;;;;;;;;;;5012244;28;20349;-67
2023/03/31 09:32:48;;;;;;;3.17;2.13;;;;;;;;;;5020548;28;20033;-67
2023/03/31 09:35:24;;;;;;;3.53;2.87;;;;;;;;;;5020102;28;20488;-67
2023/03/31 09:37:51;;;;;;;5.00;3.50;;;;;;;;;;5022739;28;20516;-67
2023/03/31 09:40:18;;;;;;;3.17;1.97;;;;;;;;;;5017369;28;20022;-67
2023/03/31 09:42:46;;;;;;;2.47;2.00;;;;;;;;;;5013388;28;20026;-67
2023/03/31 09:45:17;;;;;;;6.03;2.60;;;;;;;;;;5025330;28;20079;-67
2023/03/31 09:47:46;;;;;;;3.70;2.63;;;;;;;;;;5026550;28;20455;-68
2023/03/31 09:50:14;;;;;;;5.10;2.77;;;;;;;;;;5012963;28;20037;-68
2023/03/31 09:52:46;;;;;;;3.93;1.73;;;;;;;;;;5014081;28;20025;-67
2023/03/31 09:55:21;;;;;;;5.07;3.40;;;;;;;;;;5022494;28;20022;-67
2023/03/31 09:57:47;;;;;;;;;;;;;;;;;;5012487;28;20068;-67
2023/03/31 10:00:18;;;;;;;6.07;2.80;;;;;;;;;;5025589;28;20356;-67
2023/03/31 10:02:49;;;;;;;4.93;2.57;;;;;;;;;;5014588;28;20120;-67
2023/03/31 10:05:22;;;;;;;3.70;2.70;;;;;;;;;;5019499;28;20076;-67
2023/03/31 10:07:48;;;;;;;2.80;2.20;;;;;;;;;;5019661;28;20037;-67
2023/03/31 10:10:31;;;;;;;3.90;2.53;;;;;;;;;;5010747;28;20100;-68
2023/03/31 10:12:57;;;;;;;5.87;3.30;;;;;;;;;;5021263;28;20029;-67
2023/03/31 10:15:27;;;;;;;4.50;2.57;;;;;;;;;;5007755;28;20036;-67
2023/03/31 10:17:58;;;;;;;17.63;3.07;;;;;;;;;;5023210;28;20033;-67
2023/03/31 10:20:37;;;;;;;5.33;3.60;;;;;;;;;;5015311;28;20080;-67
2023/03/31 10:23:06;;;;;;;5.40;3.00;;;;;;;;;;5011945;28;20030;-67
2023/03/31 10:25:33;;;;;;;6.10;2.90;;;;;;;;;;5017981;28;20109;-67
2023/03/31 10:28:01;;;;;;;4.13;3.30;;;;;;;;;;5025177;28;20112;-67
2023/03/31 10:30:34;;;;;;;3.23;2.50;;;;;;;;;;5015044;28;20036;-67
2023/03/31 10:33:05;;;;;;;6.70;2.77;;;;;;;;;;5020819;28;20017;-67
2023/03/31 10:35:36;;;;;;;3.23;2.23;;;;;;;;;;5021489;28;20362;-67
2023/03/31 10:38:05;;;;;;;3.77;2.30;;;;;;;;;;5009801;28;20032;-68
2023/03/31 10:40:33;;;;;;;33.30;2.80;;;;;;;;;;5030432;28;20049;-68
2023/03/31 10:43:15;;;;;;;3.30;2.27;;;;;;;;;;5034756;28;20480;-67
2023/03/31 10:45:53;;;;;;;4.37;2.80;;;;;;;;;;5026291;28;20489;-67
2023/03/31 10:48:30;;;;;;;2.70;1.93;;;;;;;;;;5017227;28;20060;-68
2023/03/31 10:51:04;;;;;;;2.67;2.13;;;;;;;;;;5033081;28;20037;-67
2023/03/31 10:53:39;;;;;;;4.90;3.20;;;;;;;;;;5029121;28;20428;-67
2023/03/31 10:56:15;;;;;;;3.67;3.10;;;;;;;;;;5017591;28;20353;-67
2023/03/31 10:58:41;;;;;;;3.33;2.60;;;;;;;;;;5026955;28;20032;-67
2023/03/31 11:01:08;;;;;;;8.93;3.93;;;;;;;;;;5012468;28;20018;-67
2023/03/31 11:03:52;;;;;;;8.97;4.57;;;;;;;;;;5016650;28;20103;-67
2023/03/31 11:06:22;;;;;;;3.67;2.77;;;;;;;;;;5034275;28;20473;-67
2023/03/31 11:08:58;;;;;;;5.30;3.60;;;;;;;;;;5032632;28;20539;-68
2023/03/31 11:11:54;;;;;;;3.27;2.53;;;;;;;;;;5027906;28;20018;-67
2023/03/31 11:14:28;;;;;;;3.50;2.30;;;;;;;;;;4952355;28;20074;-68
2023/03/31 11:17:00;;;;;;;3.17;2.47;;;;;;;;;;5020077;28;20045;-67
2023/03/31 11:19:34;;;;;;;5.23;2.77;;;;;;;;;;5019479;28;20030;-67
2023/03/31 11:22:05;;;;;;;5.63;3.20;;;;;;;;;;5019662;28;20260;-67
2023/03/31 11:24:38;;;;;;;3.80;3.17;;;;;;;;;;5017842;28;20288;-67
2023/03/31 11:27:17;;;;;;;4.40;3.03;;;;;;;;;;5030250;28;20021;-67
2023/03/31 11:29:48;;;;;;;4.80;2.47;;;;;;;;;;5024242;28;20663;-67
2023/03/31 11:32:33;;;;;;;14.17;3.80;;;;;;;;;;5026127;28;20270;-67
2023/03/31 11:35:18;;;;;;;5.03;3.17;;;;;;;;;;5031461;28;20033;-68
2023/03/31 11:38:03;;;;;;;5.28;3.45;;;;;;;;;;5028577;28;20308;-67
2023/03/31 11:40:45;;;;;;;3.40;2.65;;;;;;;;;;5017225;28;20053;-67
2023/03/31 11:43:34;;;;;;;5.20;3.53;;;;;;;;;;5017326;28;20038;-67
2023/03/31 11:46:03;;;;;;;5.80;2.93;;;;;;;;;;5027864;28;20309;-67
2023/03/31 11:48:35;;;;;;;3.27;2.83;;;;;;;;;;5032055;28;20255;-67
2023/03/31 11:51:04;;;;;;;5.13;2.57;;;;;;;;;;5021618;28;20349;-68
2023/03/31 11:53:32;;;;;;;5.77;3.20;;;;;;;;;;5028490;28;20591;-67
2023/03/31 11:56:01;;;;;;;4.17;3.10;;;;;;;;;;5017603;28;20719;-67
2023/03/31 11:58:37;;;;;;;7.33;2.60;;;;;;;;;;5028540;28;20369;-67
2023/03/31 12:01:09;;;;;;;3.80;3.03;;;;;;;;;;5018915;28;20819;-67
2023/03/31 12:03:44;;;;;;;6.13;3.20;;;;;;;;;;5021580;28;20290;-67
2023/03/31 12:06:18;;;;;;;4.45;3.42;;;;;;;;;;5024618;28;20332;-67
2023/03/31 12:09:05;;;;;;;11.53;4.30;;;;;;;;;;5018924;28;20040;-67
2023/03/31 12:11:35;;;;;;;6.17;3.10;;;;;;;;;;5019594;28;20332;-67
2023/03/31 12:14:22;;;;;;;9.33;4.00;;;;;;;;;;5025111;28;20405;-67
2023/03/31 12:16:52;;;;;;;7.37;3.50;;;;;;;;;;5016453;28;20785;-67
2023/03/31 12:19:22;;;;;;;4.50;3.30;;;;;;;;;;5026105;28;20286;-67
2023/03/31 12:21:54;;;;;;;3.97;2.80;;;;;;;;;;5022140;28;20267;-67
2023/03/31 12:24:20;;;;;;;6.30;4.07;;;;;;;;;;5019974;28;21056;-67
2023/03/31 12:26:57;;;;;;;7.23;4.17;;;;;;;;;;5013843;28;20273;-67
2023/03/31 12:29:24;;;;;;;6.33;4.43;;;;;;;;;;5019691;28;20691;-67
2023/03/31 12:31:53;;;;;;;5.07;3.30;;;;;;;;;;5027052;28;20591;-67
2023/03/31 12:34:23;;;;;;;4.27;3.27;;;;;;;;;;5025124;28;20642;-68
2023/03/31 12:36:57;;;;;;;3.83;2.63;;;;;;;;;;5023469;28;20266;-67
2023/03/31 12:39:42;;;;;;;12.67;5.43;;;;;;;;;;5024735;28;20271;-67
2023/03/31 12:42:27;;;;;;;5.07;3.90;;;;;;;;;;5027572;28;20332;-67
2023/03/31 12:45:10;;;;;;;14.13;4.93;;;;;;;;;;5015367;28;20134;-67
2023/03/31 12:47:55;;;;;;;15.10;6.57;;;;;;;;;;5023352;28;20147;-67
2023/03/31 12:50:31;;;;;;;8.60;4.57;;;;;;;;;;5012175;28;20262;-68
2023/03/31 12:53:04;;;;;;;13.80;5.57;;;;;;;;;;5022172;28;20472;-67
2023/03/31 12:55:39;;;;;;;9.47;5.33;;;;;;;;;;5015530;28;20276;-67
2023/03/31 12:58:33;;;;;;;13.40;6.53;;;;;;;;;;5029082;28;20766;-67
2023/03/31 13:01:15;;;;;;;7.67;5.07;;;;;;;;;;5013703;28;20037;-67
2023/03/31 13:03:44;;;;;;;6.47;4.83;;;;;;;;;;5014032;28;20279;-67
2023/03/31 13:06:31;;;;;;;6.07;4.43;;;;;;;;;;5025334;28;20263;-68
2023/03/31 13:08:57;;;;;;;8.50;4.90;;;;;;;;;;5022048;28;20378;-67
2023/03/31 13:11:36;;;;;;;13.03;5.47;;;;;;;;;;5014440;28;20267;-67
2023/03/31 13:14:09;;;;;;;9.23;5.37;;;;;;;;;;5022153;28;20382;-67
2023/03/31 13:16:36;;;;;;;5.87;4.03;;;;;;;;;;5012492;28;20275;-67
2023/03/31 13:19:03;;;;;;;9.10;5.23;;;;;;;;;;5024282;28;20346;-67
2023/03/31 13:21:29;;;;;;;8.23;4.60;;;;;;;;;;5015716;28;20374;-68
2023/03/31 13:24:00;;;;;;;11.27;4.50;;;;;;;;;;5029262;28;20038;-67
2023/03/31 13:26:33;;;;;;;10.50;4.33;;;;;;;;;;5029683;28;20060;-67
2023/03/31 13:29:10;;;;;;;8.17;5.47;;;;;;;;;;5022291;28;20026;-68
2023/03/31 13:31:55;;;;;;;19.40;4.60;;;;;;;;;;5019471;28;20034;-68
2023/03/31 13:34:22;;;;;;;5.80;4.05;;;;;;;;;;5020352;28;20026;-68
2023/03/31 13:37:24;;;;;;;6.70;3.97;;;;;;;;;;5010366;28;20102;-68
2023/03/31 13:40:08;;;;;;;5.87;4.00;;;;;;;;;;4980729;28;20114;-68
2023/03/31 13:42:43;;;;;;;5.60;3.87;;;;;;;;;;5009039;28;20060;-68
2023/03/31 13:45:13;;;;;;;5.70;3.73;;;;;;;;;;5016867;28;20030;-68
2023/03/31 13:47:39;;;;;;;10.17;4.47;;;;;;;;;;5028015;28;20033;-68
2023/03/31 13:50:25;;;;;;;3.90;3.17;;;;;;;;;;5016896;28;20025;-67
2023/03/31 13:53:10;;;;;;;6.32;3.25;;;;;;;;;;5008040;28;20117;-68
2023/03/31 13:55:39;;;;;;;7.80;3.97;;;;;;;;;;5008797;28;20037;-69
2023/03/31 13:58:18;;;;;;;12.33;4.50;;;;;;;;;;5008127;28;20026;-69
2023/03/31 14:00:54;;;;;;;6.83;3.90;;;;;;;;;;5026678;28;20037;-69
2023/03/31 14:03:29;;;;;;;9.23;4.70;;;;;;;;;;5028555;28;20030;-69
2023/03/31 14:06:03;;;;;;;5.90;4.23;;;;;;;;;;5018324;28;20057;-69
2023/03/31 14:08:38;;;;;;;18.17;4.17;;;;;;;;;;5020897;28;20025;-70
2023/03/31 14:11:20;;;;;;;8.67;4.63;;;;;;;;;;5023682;28;20030;-69
2023/03/31 14:13:59;;;;;;;5.57;3.93;;;;;;;;;;5025758;28;20036;-70
2023/03/31 14:16:26;;;;;;;8.03;4.10;;;;;;;;;;5023249;28;20044;-70
2023/03/31 14:18:59;;;;;;;26.60;4.57;;;;;;;;;;5013017;28;20026;-70
2023/03/31 14:21:37;;;;;;;6.27;3.40;;;;;;;;;;5024440;28;20018;-70
2023/03/31 14:24:16;;;;;;;7.27;3.70;;;;;;;;;;5018175;28;20091;-70
2023/03/31 14:26:45;;;;;;;8.83;3.37;;;;;;;;;;5026230;28;20030;-70
2023/03/31 14:29:28;;;;;;;10.57;4.40;;;;;;;;;;5016180;28;20030;-69
2023/03/31 14:32:03;;;;;;;5.40;3.40;;;;;;;;;;5014753;28;20030;-70
2023/03/31 14:34:31;;;;;;;6.20;3.95;;;;;;;;;;5018569;28;20116;-70
2023/03/31 14:37:02;;;;;;;5.27;3.57;;;;;;;;;;5028053;28;20033;-70
2023/03/31 14:39:33;;;;;;;7.53;3.93;;;;;;;;;;5013766;28;20029;-70
2023/03/31 14:42:02;;;;;;;6.37;4.53;;;;;;;;;;5018991;28;20419;-69
2023/03/31 14:44:29;;;;;;;7.97;4.57;;;;;;;;;;5025186;28;20400;-69
2023/03/31 14:46:57;;;;;;;10.90;5.17;;;;;;;;;;5025167;28;20030;-70
2023/03/31 14:49:28;;;;;;;4.23;3.37;;;;;;;;;;5028352;28;20014;-70
2023/03/31 14:51:55;;;;;;;5.67;3.73;;;;;;;;;;4997560;28;20404;-70
2023/03/31 14:54:22;;;;;;;9.73;3.53;;;;;;;;;;5027423;28;20035;-70
2023/03/31 14:56:52;;;;;;;3.00;2.10;;;;;;;;;;5018082;28;20068;-70
2023/03/31 14:59:21;;;;;;;4.70;3.47;;;;;;;;;;5014176;28;20024;-70
2023/03/31 15:01:50;;;;;;;12.30;3.70;;;;;;;;;;5029197;28;20420;-69
2023/03/31 15:04:19;;;;;;;6.43;3.93;;;;;;;;;;5017316;28;20084;-70
2023/03/31 15:06:47;;;;;;;9.83;2.87;;;;;;;;;;5027733;28;20464;-70
2023/03/31 15:09:22;;;;;;;10.17;3.93;;;;;;;;;;5032607;28;20472;-70